createdAt,value
2019-01-30T00:01:59.756Z,11.08
2019-01-30T00:04:32.775Z,11.30
2019-01-30T00:07:06.123Z,11.45
2019-01-30T00:09:37.131Z,11.00
2019-01-30T00:12:09.877Z,9.35
2019-01-30T00:14:40.571Z,9.10
2019-01-30T00:17:10.960Z,10.43
2019-01-30T00:19:42.757Z,10.63
2019-01-30T00:22:13.292Z,9.90
2019-01-30T00:24:43.615Z,9.60
2019-01-30T00:27:15.554Z,9.85
2019-01-30T00:29:45.989Z,9.65
2019-01-30T00:32:16.527Z,12.80
2019-01-30T00:34:47.106Z,10.03
2019-01-30T00:37:17.543Z,10.80
2019-01-30T00:39:48.050Z,11.38
2019-01-30T00:42:18.611Z,13.53
2019-01-30T00:44:49.092Z,10.05
2019-01-30T00:47:19.738Z,9.88
2019-01-30T00:49:50.132Z,10.03
2019-01-30T00:52:20.701Z,12.00
2019-01-30T00:54:51.265Z,10.23
2019-01-30T00:57:21.909Z,10.50
2019-01-30T00:59:52.284Z,9.40
2019-01-30T01:02:22.817Z,11.03
2019-01-30T01:04:53.390Z,9.95
2019-01-30T01:07:24.101Z,12.68
2019-01-30T01:09:54.904Z,10.10
2019-01-30T01:12:26.595Z,10.63
2019-01-30T01:14:57.156Z,11.18
2019-01-30T01:17:27.736Z,10.68
2019-01-30T01:19:58.116Z,10.40
2019-01-30T01:22:28.643Z,10.68
2019-01-30T01:24:59.149Z,9.95
2019-01-30T01:27:29.461Z,10.43
2019-01-30T01:30:00.035Z,11.20
2019-01-30T01:32:30.576Z,9.45
2019-01-30T01:35:00.909Z,9.78
2019-01-30T01:37:31.699Z,9.58
2019-01-30T01:40:04.726Z,10.50
2019-01-30T01:42:35.230Z,10.85
2019-01-30T01:45:07.376Z,11.40
2019-01-30T01:47:42.987Z,10.28
2019-01-30T01:50:16.347Z,10.95
2019-01-30T01:52:47.015Z,10.50
2019-01-30T01:55:17.697Z,10.43
2019-01-30T01:57:52.549Z,11.77
2019-01-30T02:00:35.595Z,10.37
2019-01-30T02:03:02.801Z,10.20
2019-01-30T02:05:33.333Z,10.30
2019-01-30T02:08:03.718Z,10.50
2019-01-30T02:10:35.760Z,14.53
2019-01-30T02:13:07.023Z,12.10
2019-01-30T02:15:37.422Z,11.77
2019-01-30T02:18:08.512Z,10.40
2019-01-30T02:20:40.408Z,10.63
2019-01-30T02:23:11.776Z,11.83
2019-01-30T02:25:42.191Z,12.10
2019-01-30T02:28:12.581Z,10.70
2019-01-30T02:30:47.592Z,10.23
2019-01-30T02:33:14.842Z,14.23
2019-01-30T02:35:45.315Z,11.50
2019-01-30T02:38:15.669Z,9.93
2019-01-30T02:40:46.482Z,10.00
2019-01-30T02:43:16.859Z,10.20
2019-01-30T02:45:47.185Z,11.23
2019-01-30T02:48:17.587Z,10.60
2019-01-30T02:50:47.923Z,11.47
2019-01-30T02:53:22.109Z,11.70
2019-01-30T02:55:52.857Z,11.93
2019-01-30T02:58:23.181Z,11.30
2019-01-30T03:00:59.447Z,12.57
2019-01-30T03:03:25.416Z,15.37
2019-01-30T03:05:55.722Z,13.40
2019-01-30T03:08:26.108Z,15.27
2019-01-30T03:10:56.642Z,13.30
2019-01-30T03:13:27.237Z,12.47
2019-01-30T03:15:57.625Z,12.13
2019-01-30T03:18:28.014Z,11.17
2019-01-30T03:20:58.381Z,12.37
2019-01-30T03:23:28.776Z,13.93
2019-01-30T03:25:59.102Z,12.50
2019-01-30T03:28:29.445Z,13.53
2019-01-30T03:31:15.901Z,12.97
2019-01-30T03:33:31.655Z,12.47
2019-01-30T03:36:02.027Z,11.67
2019-01-30T03:38:32.463Z,12.60
2019-01-30T03:41:02.839Z,13.00
2019-01-30T03:43:33.175Z,11.27
2019-01-30T03:46:03.632Z,13.13
2019-01-30T03:48:33.985Z,12.43
2019-01-30T03:51:04.361Z,11.43
2019-01-30T03:53:34.755Z,11.23
2019-01-30T03:56:05.253Z,11.47
2019-01-30T03:58:35.578Z,11.10
2019-01-30T04:01:06.274Z,11.87
2019-01-30T04:03:36.613Z,12.30
2019-01-30T04:06:06.992Z,12.07
2019-01-30T04:08:37.378Z,11.30
2019-01-30T04:11:07.726Z,10.97
2019-01-30T04:13:38.088Z,11.20
2019-01-30T04:16:08.700Z,10.27
2019-01-30T04:18:38.993Z,11.37
2019-01-30T04:21:09.382Z,10.43
2019-01-30T04:23:39.769Z,11.10
2019-01-30T04:26:10.183Z,10.77
2019-01-30T04:28:40.492Z,10.67
2019-01-30T04:31:11.008Z,9.53
2019-01-30T04:33:41.325Z,9.23
2019-01-30T04:36:11.679Z,9.30
2019-01-30T04:38:42.073Z,9.90
2019-01-30T04:41:12.431Z,9.67
2019-01-30T04:43:42.787Z,9.23
2019-01-30T04:46:13.407Z,9.40
2019-01-30T04:48:43.767Z,9.77
2019-01-30T04:51:14.185Z,9.37
2019-01-30T04:53:44.613Z,9.17
2019-01-30T04:56:14.966Z,9.23
2019-01-30T04:58:45.327Z,9.27
2019-01-30T05:01:15.811Z,10.30
2019-01-30T05:03:46.154Z,9.73
2019-01-30T05:06:16.458Z,8.70
2019-01-30T05:08:47.267Z,9.63
2019-01-30T05:11:17.647Z,9.20
2019-01-30T05:13:48.448Z,9.80
2019-01-30T05:16:18.958Z,10.40
2019-01-30T05:18:49.367Z,11.90
2019-01-30T05:21:19.730Z,10.80
2019-01-30T05:23:50.141Z,11.70
2019-01-30T05:26:20.474Z,11.93
2019-01-30T05:28:50.829Z,11.47
2019-01-30T05:31:22.032Z,11.37
2019-01-30T05:33:52.525Z,11.77
2019-01-30T05:36:22.856Z,12.00
2019-01-30T05:38:53.250Z,11.90
2019-01-30T05:41:23.589Z,12.20
2019-01-30T05:43:53.896Z,11.30
2019-01-30T05:46:24.359Z,11.40
2019-01-30T05:48:54.679Z,12.67
2019-01-30T05:51:25.062Z,11.70
2019-01-30T05:53:55.496Z,12.43
2019-01-30T05:56:25.950Z,11.70
2019-01-30T05:58:56.262Z,11.23
2019-01-30T06:01:26.683Z,12.47
2019-01-30T06:03:57.044Z,12.33
2019-01-30T06:06:27.318Z,12.07
2019-01-30T06:08:59.312Z,11.47
2019-01-30T06:11:29.802Z,11.77
2019-01-30T06:14:00.145Z,12.63
2019-01-30T06:16:30.776Z,11.90
2019-01-30T06:19:01.160Z,12.47
2019-01-30T06:21:31.462Z,12.13
2019-01-30T06:24:01.901Z,12.47
2019-01-30T06:26:32.239Z,12.30
2019-01-30T06:29:02.546Z,12.50
2019-01-30T06:31:33.014Z,13.03
2019-01-30T06:34:03.348Z,12.00
2019-01-30T06:36:33.693Z,13.00
2019-01-30T06:39:05.987Z,12.17
2019-01-30T06:41:36.319Z,16.17
2019-01-30T06:44:06.634Z,17.93
2019-01-30T06:46:37.105Z,23.03
2019-01-30T06:49:07.450Z,18.70
2019-01-30T06:51:37.841Z,18.70
2019-01-30T06:54:08.228Z,15.17
2019-01-30T06:56:38.534Z,14.73
2019-01-30T06:59:08.888Z,14.67
2019-01-30T07:01:39.361Z,13.83
2019-01-30T07:04:09.683Z,13.53
2019-01-30T07:06:40.000Z,14.00
2019-01-30T07:09:12.026Z,14.53
2019-01-30T07:11:42.447Z,13.10
2019-01-30T07:14:12.768Z,12.93
2019-01-30T07:16:43.243Z,14.00
2019-01-30T07:19:13.685Z,12.73
2019-01-30T07:21:44.156Z,12.50
2019-01-30T07:24:14.575Z,13.03
2019-01-30T07:26:44.926Z,11.80
2019-01-30T07:29:15.238Z,11.97
2019-01-30T07:31:45.687Z,12.10
2019-01-30T07:34:16.057Z,11.60
2019-01-30T07:36:46.478Z,11.50
2019-01-30T07:39:16.792Z,11.63
2019-01-30T07:41:47.096Z,11.80
2019-01-30T07:44:17.488Z,10.33
2019-01-30T07:46:47.783Z,10.97
2019-01-30T07:49:18.167Z,13.07
2019-01-30T07:51:48.723Z,10.97
2019-01-30T07:54:19.054Z,12.47
2019-01-30T07:56:49.418Z,13.07
2019-01-30T07:59:25.335Z,11.93
2019-01-30T08:01:55.709Z,10.97
2019-01-30T08:04:26.077Z,11.03
2019-01-30T08:06:56.509Z,12.57
2019-01-30T08:09:26.807Z,11.40
2019-01-30T08:11:57.187Z,11.20
2019-01-30T08:14:27.638Z,11.07
2019-01-30T08:16:57.947Z,11.93
2019-01-30T08:19:28.287Z,13.60
2019-01-30T08:21:58.801Z,12.57
2019-01-30T08:24:29.465Z,13.40
2019-01-30T08:27:00.181Z,11.60
2019-01-30T08:29:30.789Z,12.10
2019-01-30T08:32:01.247Z,14.73
2019-01-30T08:34:31.627Z,14.97
2019-01-30T08:37:02.126Z,15.33
2019-01-30T08:39:32.452Z,16.30
2019-01-30T08:42:02.755Z,18.60
2019-01-30T08:44:33.190Z,20.53
2019-01-30T08:47:03.526Z,19.57
2019-01-30T08:49:33.864Z,18.60
2019-01-30T08:52:04.300Z,17.97
2019-01-30T08:54:34.607Z,19.03
2019-01-30T08:57:04.923Z,17.10
2019-01-30T08:59:35.341Z,15.70
2019-01-30T09:02:06.176Z,17.40
2019-01-30T09:04:36.509Z,17.93
2019-01-30T09:07:06.932Z,15.93
2019-01-30T09:09:37.263Z,16.53
2019-01-30T09:12:07.672Z,15.50
2019-01-30T09:14:38.042Z,17.10
2019-01-30T09:17:08.756Z,17.03
2019-01-30T09:19:39.256Z,14.80
2019-01-30T09:22:09.675Z,16.07
2019-01-30T09:24:40.576Z,16.40
2019-01-30T09:27:10.922Z,15.70
2019-01-30T09:29:41.290Z,15.53
2019-01-30T09:32:11.629Z,16.97
2019-01-30T09:34:41.989Z,16.07
2019-01-30T09:37:12.475Z,16.23
2019-01-30T09:39:42.804Z,17.43
2019-01-30T09:42:13.131Z,16.20
2019-01-30T09:44:43.483Z,15.53
2019-01-30T09:47:13.840Z,15.70
2019-01-30T09:49:44.130Z,13.93
2019-01-30T09:52:14.610Z,14.37
2019-01-30T09:54:45.008Z,14.20
2019-01-30T09:57:15.366Z,15.57
2019-01-30T09:59:45.759Z,15.07
2019-01-30T10:02:16.104Z,16.70
2019-01-30T10:04:46.400Z,15.17
2019-01-30T10:07:16.844Z,16.67
2019-01-30T10:09:47.154Z,14.27
2019-01-30T10:12:17.576Z,16.27
2019-01-30T10:14:47.955Z,17.23
2019-01-30T10:17:18.288Z,18.60
2019-01-30T10:19:48.626Z,18.80
2019-01-30T10:22:19.014Z,17.27
2019-01-30T10:24:50.555Z,19.10
2019-01-30T10:27:21.600Z,18.97
2019-01-30T10:29:51.944Z,22.97
2019-01-30T10:32:22.232Z,23.53
2019-01-30T10:34:52.618Z,18.20
2019-01-30T10:37:23.000Z,20.87
2019-01-30T10:39:53.357Z,23.37
2019-01-30T10:42:23.828Z,24.33
2019-01-30T10:44:54.192Z,24.67
2019-01-30T10:47:24.523Z,23.17
2019-01-30T10:49:54.958Z,23.10
2019-01-30T10:52:25.328Z,23.73
2019-01-30T10:54:55.669Z,25.67
2019-01-30T10:57:26.181Z,26.03
2019-01-30T10:59:56.480Z,26.40
2019-01-30T11:02:26.860Z,26.87
2019-01-30T11:04:57.258Z,24.63
2019-01-30T11:07:27.554Z,23.67
2019-01-30T11:09:58.435Z,24.80
2019-01-30T11:12:28.936Z,22.93
2019-01-30T11:14:59.235Z,23.80
2019-01-30T11:17:29.632Z,22.57
2019-01-30T11:20:02.675Z,25.43
2019-01-30T11:22:33.065Z,26.10
2019-01-30T11:25:05.611Z,22.57
2019-01-30T11:27:35.442Z,24.03
2019-01-30T11:30:08.512Z,22.83
2019-01-30T11:32:38.891Z,21.87
2019-01-30T11:35:10.157Z,22.10
2019-01-30T11:37:40.593Z,21.57
2019-01-30T11:40:22.184Z,26.47
2019-01-30T11:42:53.711Z,22.50
2019-01-30T11:45:26.672Z,23.23
2019-01-30T11:47:57.195Z,25.90
2019-01-30T11:50:27.785Z,23.10
2019-01-30T11:52:58.529Z,23.60
2019-01-30T11:55:29.038Z,22.83
2019-01-30T11:57:59.390Z,27.10
2019-01-30T12:00:35.955Z,27.93
2019-01-30T12:03:06.404Z,25.23
2019-01-30T12:05:36.782Z,23.27
2019-01-30T12:08:07.789Z,25.40
2019-01-30T12:10:38.156Z,24.23
2019-01-30T12:13:08.730Z,23.17
2019-01-30T12:15:39.184Z,25.40
2019-01-30T12:18:09.525Z,24.87
2019-01-30T12:20:44.630Z,25.30
2019-01-30T12:23:14.954Z,25.47
2019-01-30T12:25:45.485Z,23.90
2019-01-30T12:28:16.058Z,26.20
2019-01-30T12:30:46.431Z,25.17
2019-01-30T12:33:16.846Z,25.37
2019-01-30T12:35:47.190Z,26.63
2019-01-30T12:38:17.622Z,29.13
2019-01-30T12:40:48.070Z,29.27
2019-01-30T12:43:19.514Z,29.87
2019-01-30T12:45:51.346Z,28.43
2019-01-30T12:48:21.762Z,32.37
2019-01-30T12:50:52.354Z,30.57
2019-01-30T12:53:22.841Z,29.13
2019-01-30T12:55:53.213Z,32.17
2019-01-30T12:58:23.570Z,29.70
2019-01-30T13:00:54.077Z,29.13
2019-01-30T13:03:24.383Z,26.10
2019-01-30T13:05:55.653Z,27.23
2019-01-30T13:08:26.030Z,27.93
2019-01-30T13:10:56.380Z,29.70
2019-01-30T13:13:26.789Z,28.60
2019-01-30T13:15:57.263Z,26.53
2019-01-30T13:18:27.976Z,26.67
2019-01-30T13:21:03.023Z,25.43
2019-01-30T13:23:33.413Z,26.10
2019-01-30T13:26:03.767Z,25.37
2019-01-30T13:28:34.361Z,23.13
2019-01-30T13:31:04.733Z,24.47
2019-01-30T13:33:35.261Z,28.53
2019-01-30T13:36:07.352Z,23.73
2019-01-30T13:38:37.667Z,23.47
2019-01-30T13:41:08.246Z,22.07
2019-01-30T13:43:38.670Z,20.30
2019-01-30T13:46:09.142Z,23.13
2019-01-30T13:48:39.583Z,24.63
2019-01-30T13:51:11.308Z,21.47
2019-01-30T13:53:42.160Z,21.33
2019-01-30T13:56:12.721Z,20.60
2019-01-30T13:58:43.303Z,19.37
2019-01-30T14:01:17.545Z,17.17
2019-01-30T14:03:45.683Z,16.70
2019-01-30T14:06:16.231Z,16.97
2019-01-30T14:08:46.765Z,17.67
2019-01-30T14:11:17.189Z,18.40
2019-01-30T14:13:47.560Z,19.10
2019-01-30T14:16:17.908Z,16.73
2019-01-30T14:18:48.436Z,16.33
2019-01-30T14:21:18.930Z,15.20
2019-01-30T14:23:53.972Z,16.23
2019-01-30T14:26:27.268Z,17.33
2019-01-30T14:28:58.369Z,16.20
2019-01-30T14:31:29.924Z,16.10
2019-01-30T14:34:05.364Z,17.53
2019-01-30T14:36:35.720Z,16.40
2019-01-30T14:39:08.798Z,16.00
2019-01-30T14:41:40.648Z,17.40
2019-01-30T14:44:11.630Z,15.40
2019-01-30T14:46:42.130Z,15.90
2019-01-30T14:49:12.493Z,16.70
2019-01-30T14:51:46.347Z,14.57
2019-01-30T14:54:16.673Z,15.30
2019-01-30T14:56:53.588Z,15.97
2019-01-30T14:59:24.100Z,17.17
2019-01-30T15:01:56.041Z,18.85
2019-01-30T15:04:29.623Z,19.07
2019-01-30T15:07:00.349Z,21.30
2019-01-30T15:09:30.828Z,15.83
2019-01-30T15:12:01.371Z,15.47
2019-01-30T15:14:31.815Z,14.33
2019-01-30T15:17:05.342Z,16.63
2019-01-30T15:19:35.931Z,14.33
2019-01-30T15:22:06.543Z,17.83
2019-01-30T15:24:38.356Z,15.97
2019-01-30T15:27:08.838Z,15.90
2019-01-30T15:29:39.388Z,16.77
2019-01-30T15:32:10.149Z,14.67
2019-01-30T15:34:40.571Z,14.90
2019-01-30T15:37:10.941Z,14.90
2019-01-30T15:39:41.437Z,12.97
2019-01-30T15:42:11.829Z,17.03
2019-01-30T15:44:42.310Z,16.93
2019-01-30T15:47:12.970Z,14.97
2019-01-30T15:49:43.371Z,13.63
2019-01-30T15:52:13.778Z,15.40
2019-01-30T15:54:44.502Z,16.10
2019-01-30T15:57:14.965Z,14.13
2019-01-30T15:59:45.587Z,12.67
2019-01-30T16:02:16.184Z,13.13
2019-01-30T16:04:46.600Z,13.60
2019-01-30T16:07:16.983Z,12.27
2019-01-30T16:09:47.680Z,14.93
2019-01-30T16:12:18.202Z,17.10
2019-01-30T16:14:48.565Z,15.57
2019-01-30T16:17:18.993Z,15.83
2019-01-30T16:19:49.529Z,16.87
2019-01-30T16:22:19.977Z,14.25
2019-01-30T16:24:50.411Z,14.33
2019-01-30T16:27:43.695Z,14.73
2019-01-30T16:30:19.517Z,13.55
2019-01-30T16:32:50.045Z,12.90
2019-01-30T16:35:23.695Z,18.30
2019-01-30T16:37:54.088Z,15.72
2019-01-30T16:40:25.949Z,13.55
2019-01-30T16:42:56.535Z,10.78
2019-01-30T16:45:32.238Z,12.15
2019-01-30T16:48:02.733Z,14.65
2019-01-30T16:50:34.437Z,10.95
2019-01-30T16:53:09.450Z,9.18
2019-01-30T16:55:40.350Z,10.50
2019-01-30T16:58:11.061Z,9.90
2019-01-30T17:00:41.743Z,9.73
2019-01-30T17:03:13.086Z,10.05
2019-01-30T17:05:43.592Z,10.43
2019-01-30T17:08:14.168Z,12.55
2019-01-30T17:11:13.659Z,10.78
2019-01-30T17:13:44.023Z,11.97
2019-01-30T17:16:14.686Z,11.48
2019-01-30T17:18:45.315Z,10.18
2019-01-30T17:21:15.706Z,9.58
2019-01-30T17:23:48.513Z,9.85
2019-01-30T17:26:21.177Z,9.68
2019-01-30T17:28:51.706Z,10.25
2019-01-30T17:31:22.493Z,10.13
2019-01-30T17:33:53.040Z,10.35
2019-01-30T17:36:26.363Z,13.30
2019-01-30T17:38:56.925Z,15.13
2019-01-30T17:41:27.481Z,12.13
2019-01-30T17:43:58.016Z,10.25
2019-01-30T17:46:28.449Z,11.55
2019-01-30T17:48:58.868Z,12.40
2019-01-30T17:51:29.246Z,13.30
2019-01-30T17:53:59.818Z,15.20
2019-01-30T17:56:30.347Z,11.45
2019-01-30T17:59:03.909Z,12.47
2019-01-30T18:01:34.865Z,12.45
2019-01-30T18:04:05.866Z,14.10
2019-01-30T18:06:37.657Z,12.47
2019-01-30T18:09:09.405Z,10.35
2019-01-30T18:11:42.795Z,11.08
2019-01-30T18:14:13.173Z,10.70
2019-01-30T18:16:43.799Z,11.53
2019-01-30T18:19:18.456Z,10.82
2019-01-30T18:21:48.888Z,11.73
2019-01-30T18:24:19.262Z,11.53
2019-01-30T18:26:53.323Z,12.40
2019-01-30T18:29:28.258Z,11.48
2019-01-30T18:32:07.490Z,11.63
2019-01-30T18:34:37.779Z,12.70
2019-01-30T18:37:12.557Z,11.00
2019-01-30T18:39:43.103Z,11.80
2019-01-30T18:42:13.708Z,9.60
2019-01-30T18:44:44.410Z,14.28
2019-01-30T18:47:14.909Z,14.80
2019-01-30T18:49:47.151Z,11.33
2019-01-30T18:52:20.849Z,12.75
2019-01-30T18:54:51.864Z,11.73
2019-01-30T18:57:25.776Z,10.85
2019-01-30T18:59:59.152Z,13.43
2019-01-30T19:02:29.654Z,13.22
2019-01-30T19:05:09.098Z,15.23
2019-01-30T19:07:39.207Z,19.25
2019-01-30T19:10:12.164Z,13.05
2019-01-30T19:12:42.801Z,15.40
2019-01-30T19:15:16.043Z,15.88
2019-01-30T19:17:46.782Z,14.58
2019-01-30T19:20:28.902Z,12.35
2019-01-30T19:23:01.825Z,13.32
2019-01-30T19:25:35.347Z,13.80
2019-01-30T19:28:07.314Z,13.60
2019-01-30T19:30:38.036Z,12.95
2019-01-30T19:33:14.708Z,13.38
2019-01-30T19:35:48.162Z,12.55
2019-01-30T19:38:18.521Z,13.72
2019-01-30T19:40:50.078Z,12.35
2019-01-30T19:43:26.110Z,13.18
2019-01-30T19:45:56.695Z,15.45
2019-01-30T19:51:26.369Z,12.28
2019-01-30T19:54:00.158Z,13.32
2019-01-30T19:56:33.168Z,12.25
2019-01-30T19:59:03.814Z,13.98
2019-01-30T20:01:38.328Z,12.98
2019-01-30T20:04:10.790Z,15.60
2019-01-30T20:06:41.264Z,17.00
2019-01-30T20:09:19.504Z,13.75
2019-01-30T20:11:48.933Z,15.28
2019-01-30T20:14:20.805Z,12.00
2019-01-30T20:17:01.186Z,14.63
2019-01-30T20:19:44.404Z,15.65
2019-01-30T20:22:15.833Z,12.80
2019-01-30T20:24:46.960Z,12.70
2019-01-30T20:27:19.399Z,12.43
2019-01-30T20:29:49.766Z,14.07
2019-01-30T20:32:20.267Z,11.10
2019-01-30T20:34:50.805Z,14.35
2019-01-30T20:37:26.252Z,12.60
2019-01-30T20:39:55.008Z,13.03
2019-01-30T20:42:27.365Z,11.55
2019-01-30T20:45:00.594Z,11.97
2019-01-30T20:47:34.255Z,12.47
2019-01-30T20:50:06.387Z,15.43
2019-01-30T20:52:48.405Z,13.08
2019-01-30T20:55:22.795Z,12.13
2019-01-30T20:57:53.355Z,12.43
2019-01-30T21:00:37.803Z,13.85
2019-01-30T21:03:10.387Z,14.00
2019-01-30T21:05:41.148Z,12.47
2019-01-30T21:08:18.718Z,17.62
2019-01-30T21:10:49.376Z,13.93
2019-01-30T21:13:20.006Z,16.17
2019-01-30T21:15:50.558Z,14.40
2019-01-30T21:18:22.404Z,14.00
2019-01-30T21:21:02.890Z,13.55
2019-01-30T21:23:27.945Z,12.93
2019-01-30T21:26:02.060Z,13.32
2019-01-30T21:28:34.089Z,11.73
2019-01-30T21:31:04.684Z,12.70
2019-01-30T21:33:39.677Z,11.93
2019-01-30T21:36:26.976Z,13.20
2019-01-30T21:39:00.372Z,11.33
2019-01-30T21:41:30.937Z,11.12
2019-01-30T21:44:02.779Z,13.13
2019-01-30T21:46:49.080Z,10.82
2019-01-30T21:49:34.998Z,12.37
2019-01-30T21:55:08.916Z,11.55
2019-01-30T21:57:41.855Z,13.15
2019-01-30T22:00:28.305Z,13.13
2019-01-30T22:02:59.094Z,13.80
2019-01-30T22:05:32.600Z,11.97
2019-01-30T22:08:03.101Z,14.53
2019-01-30T22:10:36.489Z,15.10
2019-01-30T22:13:15.055Z,23.83
2019-01-30T22:15:45.276Z,12.00
2019-01-30T22:18:17.437Z,12.43
2019-01-30T22:20:48.933Z,12.63
2019-01-30T22:23:22.119Z,13.48
2019-01-30T22:25:52.549Z,12.05
2019-01-30T22:28:23.050Z,12.75
2019-01-30T22:30:53.624Z,11.33
2019-01-30T22:33:26.522Z,12.07
2019-01-30T22:35:59.175Z,11.85
2019-01-30T22:38:30.936Z,12.70
2019-01-30T22:41:01.362Z,14.75
2019-01-30T22:43:31.966Z,13.95
2019-01-30T22:46:06.678Z,11.65
2019-01-30T22:48:38.312Z,12.23
2019-01-30T22:51:08.829Z,13.05
2019-01-30T22:53:42.360Z,11.12
2019-01-30T22:56:13.696Z,13.55
2019-01-30T22:58:44.118Z,12.75
2019-01-30T23:01:26.071Z,12.15
2019-01-30T23:04:01.835Z,18.52
2019-01-30T23:06:46.871Z,13.48
2019-01-30T23:09:36.469Z,12.33
2019-01-30T23:12:34.427Z,14.95
2019-01-30T23:15:07.558Z,11.05
2019-01-30T23:17:46.565Z,17.42
2019-01-30T23:20:22.762Z,12.70
2019-01-30T23:23:12.938Z,11.65
2019-01-30T23:26:00.035Z,12.65
2019-01-30T23:28:38.854Z,9.93
2019-01-30T23:31:30.581Z,12.80
2019-01-30T23:34:03.792Z,14.53
2019-01-30T23:36:51.119Z,11.85
2019-01-30T23:39:41.182Z,10.98
2019-01-30T23:42:20.480Z,10.93
2019-01-30T23:45:09.820Z,8.83
2019-01-30T23:47:43.256Z,8.80
2019-01-30T23:50:23.908Z,8.78
2019-01-30T23:53:05.824Z,9.35
2019-01-30T23:55:47.885Z,8.48
2019-01-30T23:58:36.041Z,8.93
